Time;durP1;ratioP1;P1;durP2;ratioP2;P2;SDS_P1;SDS_P2;PMS_P1;PMS_P2;Temp;Humidity;BMP_temperature;BMP_pressure;BME280_temperature;BME280_humidity;BME280_pressure;Samples;Min_cycle;Max_cycle;Signal;HPM_P1;HPM_P2
2021/07/08 00:02:13;;;;;;;6.55;4.28;;;17.90;99.90;;;;;;5035038;28;20060;-71
2021/07/08 00:04:42;;;;;;;7.50;3.80;;;17.90;99.90;;;;;;5031525;28;20040;-71
2021/07/08 00:07:10;;;;;;;5.35;3.80;;;17.90;99.90;;;;;;5036556;28;20053;-71
2021/07/08 00:09:38;;;;;;;6.40;4.10;;;17.90;99.90;;;;;;5032864;28;20043;-71
2021/07/08 00:12:07;;;;;;;6.50;4.00;;;17.90;99.90;;;;;;5033900;28;21043;-71
2021/07/08 00:14:35;;;;;;;9.23;4.80;;;17.80;99.90;;;;;;5038666;28;20041;-71
2021/07/08 00:17:06;;;;;;;5.72;4.00;;;17.80;99.90;;;;;;5031432;28;20106;-71
2021/07/08 00:19:35;;;;;;;7.45;4.20;;;17.70;99.90;;;;;;5043060;28;20826;-71
2021/07/08 00:22:03;;;;;;;5.45;4.10;;;17.70;99.90;;;;;;5030449;28;20052;-71
2021/07/08 00:24:30;;;;;;;7.97;4.50;;;17.60;99.90;;;;;;5030609;28;20049;-71
2021/07/08 00:26:58;;;;;;;6.68;4.25;;;17.60;99.90;;;;;;5029545;28;20065;-71
2021/07/08 00:29:25;;;;;;;5.57;4.20;;;17.60;99.90;;;;;;5042360;28;20045;-69
2021/07/08 00:31:52;;;;;;;6.65;4.00;;;17.50;99.90;;;;;;5050378;28;20048;-71
2021/07/08 00:34:20;;;;;;;5.57;4.60;;;17.50;99.90;;;;;;5047051;28;20063;-69
2021/07/08 00:36:47;;;;;;;7.55;5.10;;;17.50;99.90;;;;;;5030631;28;20099;-69
2021/07/08 00:39:14;;;;;;;6.10;4.50;;;17.50;99.90;;;;;;5029354;28;20076;-70
2021/07/08 00:41:43;;;;;;;7.63;4.55;;;17.50;99.90;;;;;;5037605;28;20049;-70
2021/07/08 00:44:10;;;;;;;7.72;5.07;;;17.50;99.90;;;;;;5020111;28;20107;-70
2021/07/08 00:46:38;;;;;;;9.15;4.72;;;17.50;99.90;;;;;;5035265;28;20039;-69
2021/07/08 00:49:05;;;;;;;8.63;5.18;;;17.50;99.90;;;;;;5030479;28;20104;-70
2021/07/08 00:51:32;;;;;;;6.63;4.93;;;17.50;99.90;;;;;;5037654;28;20445;-70
2021/07/08 00:54:00;;;;;;;9.25;6.22;;;17.40;99.90;;;;;;5029208;28;20045;-70
2021/07/08 00:56:34;;;;;;;9.68;6.20;;;17.40;99.90;;;;;;5036280;28;20077;-70
2021/07/08 00:59:09;;;;;;;8.85;5.40;;;17.40;99.90;;;;;;5033130;28;20557;-70
2021/07/08 01:01:37;;;;;;;9.27;6.28;;;17.40;99.90;;;;;;5028147;28;20045;-70
2021/07/08 01:04:05;;;;;;;7.32;5.22;;;17.40;99.90;;;;;;5036896;28;20041;-70
2021/07/08 01:06:33;;;;;;;6.55;4.82;;;17.40;99.90;;;;;;5048347;28;20518;-70
2021/07/08 01:09:01;;;;;;;6.88;4.50;;;17.40;99.90;;;;;;5028984;28;20096;-70
2021/07/08 01:11:29;;;;;;;8.23;5.43;;;17.40;99.90;;;;;;5037754;28;20045;-70
2021/07/08 01:13:56;;;;;;;11.02;5.25;;;17.40;99.90;;;;;;5036634;28;20492;-70
2021/07/08 01:16:27;;;;;;;6.63;4.80;;;17.30;99.90;;;;;;5039926;28;20103;-70
2021/07/08 01:18:55;;;;;;;9.02;5.95;;;17.40;99.90;;;;;;5044223;28;20099;-70
2021/07/08 01:21:30;;;;;;;6.60;4.75;;;17.40;99.90;;;;;;5037787;28;20045;-70
2021/07/08 01:23:59;;;;;;;7.07;4.43;;;17.30;99.90;;;;;;5046928;28;20419;-70
2021/07/08 01:26:26;;;;;;;7.22;5.72;;;17.30;99.90;;;;;;5049781;28;20068;-70
2021/07/08 01:28:54;;;;;;;6.05;4.78;;;17.40;99.90;;;;;;5047626;28;20111;-70
2021/07/08 01:31:23;;;;;;;6.15;4.82;;;17.40;99.90;;;;;;5021079;28;20088;-70
2021/07/08 01:33:52;;;;;;;8.88;5.25;;;17.40;99.90;;;;;;5038672;28;20044;-70
2021/07/08 01:36:20;;;;;;;8.15;5.65;;;17.30;99.90;;;;;;5048152;28;20103;-70
2021/07/08 01:38:47;;;;;;;8.80;5.25;;;17.30;99.90;;;;;;5033081;28;20107;-70
2021/07/08 01:41:15;;;;;;;6.60;5.15;;;17.30;99.90;;;;;;5028957;28;20077;-70
2021/07/08 01:43:43;;;;;;;9.10;5.10;;;17.30;99.90;;;;;;5032675;28;20423;-70
2021/07/08 01:46:13;;;;;;;9.63;5.05;;;17.40;99.90;;;;;;5046136;28;20052;-70
2021/07/08 01:48:42;;;;;;;9.98;5.47;;;17.40;99.90;;;;;;5052499;28;20083;-70
2021/07/08 01:51:30;;;;;;;9.55;6.32;;;17.40;99.90;;;;;;5046910;28;20051;-70
2021/07/08 01:53:59;;;;;;;10.95;5.30;;;17.30;99.90;;;;;;5040613;28;20075;-70
2021/07/08 01:56:27;;;;;;;10.77;6.40;;;17.20;99.90;;;;;;5035313;28;20037;-70
2021/07/08 01:58:54;;;;;;;8.82;6.50;;;17.30;99.90;;;;;;5038673;28;20069;-70
2021/07/08 02:01:23;;;;;;;14.02;6.85;;;17.20;99.90;;;;;;5046473;28;20041;-70
2021/07/08 02:03:50;;;;;;;9.50;6.15;;;17.10;99.90;;;;;;5050628;28;20044;-70
2021/07/08 02:06:18;;;;;;;8.60;6.88;;;17.10;99.90;;;;;;5052304;28;20041;-70
2021/07/08 02:08:47;;;;;;;8.65;6.13;;;17.00;99.90;;;;;;5051414;28;20041;-70
2021/07/08 02:11:14;;;;;;;8.40;6.20;;;17.00;99.90;;;;;;5051170;28;20091;-70
2021/07/08 02:13:42;;;;;;;7.53;6.10;;;17.00;99.90;;;;;;5052818;28;20037;-70
2021/07/08 02:16:10;;;;;;;7.85;5.80;;;17.00;99.90;;;;;;5053055;28;20049;-70
2021/07/08 02:18:40;;;;;;;9.93;6.82;;;16.90;99.90;;;;;;5051373;28;20446;-70
2021/07/08 02:21:08;;;;;;;9.80;6.53;;;17.00;99.90;;;;;;5051501;28;20041;-70
2021/07/08 02:23:36;;;;;;;12.07;5.97;;;16.90;99.90;;;;;;5051369;28;20098;-70
2021/07/08 02:26:05;;;;;;;10.30;6.82;;;16.90;99.90;;;;;;5045767;28;20110;-70
2021/07/08 02:28:33;;;;;;;8.02;6.38;;;16.90;99.90;;;;;;5044007;28;20080;-70
2021/07/08 02:31:01;;;;;;;9.70;6.13;;;16.90;99.90;;;;;;5053269;28;20411;-70
2021/07/08 02:33:29;;;;;;;8.02;7.00;;;16.90;99.90;;;;;;5052736;28;20479;-71
2021/07/08 02:35:56;;;;;;;9.65;5.50;;;16.90;99.90;;;;;;5040661;28;20045;-70
2021/07/08 02:38:23;;;;;;;8.32;6.45;;;16.80;99.90;;;;;;5047200;28;20419;-70
2021/07/08 02:40:51;;;;;;;7.60;5.60;;;16.90;99.90;;;;;;5050204;28;20045;-70
2021/07/08 02:43:18;;;;;;;7.90;5.50;;;16.90;99.90;;;;;;5050940;28;20068;-71
2021/07/08 02:45:46;;;;;;;7.22;5.70;;;16.90;99.90;;;;;;5028773;28;20439;-71
2021/07/08 02:48:17;;;;;;;7.43;5.95;;;16.90;99.90;;;;;;5046446;28;20129;-70
2021/07/08 02:50:46;;;;;;;8.70;5.80;;;16.90;99.90;;;;;;5024570;28;20415;-70
2021/07/08 02:53:14;;;;;;;8.60;5.80;;;17.00;99.90;;;;;;5031959;28;20049;-71
2021/07/08 02:55:42;;;;;;;12.23;6.72;;;17.00;99.90;;;;;;5044406;28;20128;-71
2021/07/08 02:58:10;;;;;;;9.45;5.95;;;17.00;99.90;;;;;;5043059;28;20045;-70
2021/07/08 03:00:38;;;;;;;9.93;6.15;;;17.00;99.90;;;;;;5046090;28;20095;-70
2021/07/08 03:03:06;;;;;;;8.95;6.28;;;17.10;99.90;;;;;;5048570;28;20504;-70
2021/07/08 03:05:34;;;;;;;10.25;5.93;;;17.00;99.90;;;;;;5050990;28;20071;-71
2021/07/08 03:08:02;;;;;;;10.90;5.80;;;17.00;99.90;;;;;;5048694;28;20045;-71
2021/07/08 03:10:30;;;;;;;9.18;5.90;;;17.00;99.90;;;;;;5052182;28;20049;-71
2021/07/08 03:12:58;;;;;;;7.40;5.60;;;17.00;99.90;;;;;;5029673;28;20054;-71
2021/07/08 03:15:27;;;;;;;5.68;4.80;;;17.00;99.90;;;;;;5047669;28;20055;-71
2021/07/08 03:17:57;;;;;;;10.70;6.18;;;17.00;99.90;;;;;;5040309;28;20049;-71
2021/07/08 03:20:27;;;;;;;9.48;4.80;;;17.00;99.90;;;;;;5051074;28;20045;-71
2021/07/08 03:22:54;;;;;;;10.23;5.40;;;17.00;99.90;;;;;;5051282;28;20047;-71
2021/07/08 03:25:23;;;;;;;11.23;5.28;;;17.00;99.90;;;;;;5042112;28;20503;-71
2021/07/08 03:27:52;;;;;;;6.90;5.63;;;17.00;99.90;;;;;;5039375;28;20066;-71
2021/07/08 03:30:22;;;;;;;9.38;5.10;;;17.00;99.90;;;;;;5050513;28;20048;-71
2021/07/08 03:32:51;;;;;;;8.60;5.70;;;17.00;99.90;;;;;;5051890;28;20037;-71
2021/07/08 03:35:23;;;;;;;9.80;5.55;;;17.00;99.90;;;;;;5047063;28;20180;-71
2021/07/08 03:37:51;;;;;;;10.43;6.30;;;17.00;99.90;;;;;;5048818;28;20466;-71
2021/07/08 03:40:19;;;;;;;8.43;5.60;;;17.00;99.90;;;;;;5042389;28;20506;-71
2021/07/08 03:42:49;;;;;;;9.18;6.30;;;17.00;99.90;;;;;;5028960;28;20045;-71
2021/07/08 03:45:18;;;;;;;7.32;4.82;;;17.00;99.90;;;;;;5043845;28;20045;-70
2021/07/08 03:47:47;;;;;;;8.93;5.95;;;17.00;99.90;;;;;;5047631;28;20041;-71
2021/07/08 03:50:15;;;;;;;8.73;6.10;;;17.10;99.90;;;;;;5035697;28;20044;-70
2021/07/08 03:52:44;;;;;;;9.90;6.45;;;17.10;99.90;;;;;;5045013;28;20036;-70
2021/07/08 03:55:19;;;;;;;8.52;5.78;;;17.10;99.90;;;;;;5049623;28;20040;-71
2021/07/08 03:57:54;;;;;;;7.72;4.88;;;17.10;99.90;;;;;;5046771;28;20474;-71
2021/07/08 04:00:33;;;;;;;8.65;6.22;;;17.10;99.90;;;;;;5050273;28;20399;-71
2021/07/08 04:03:12;;;;;;;6.90;5.93;;;17.10;99.90;;;;;;5036529;28;20045;-71
2021/07/08 04:05:40;;;;;;;7.80;5.38;;;17.20;99.90;;;;;;5044884;28;20037;-70
2021/07/08 04:08:09;;;;;;;6.15;4.95;;;17.20;99.90;;;;;;5048264;28;20119;-71
2021/07/08 04:10:39;;;;;;;7.50;5.18;;;17.20;99.90;;;;;;5048532;28;20037;-71
2021/07/08 04:13:11;;;;;;;7.13;5.07;;;17.20;99.90;;;;;;5050643;28;20400;-71
2021/07/08 04:15:39;;;;;;;7.88;5.30;;;17.30;99.90;;;;;;5037070;28;20385;-71
2021/07/08 04:18:07;;;;;;;8.02;4.75;;;17.30;99.90;;;;;;5049370;28;20049;-71
2021/07/08 04:20:35;;;;;;;9.05;5.38;;;17.30;99.90;;;;;;5050270;28;20103;-71
2021/07/08 04:23:05;;;;;;;8.02;5.32;;;17.30;99.90;;;;;;5038636;28;20131;-71
2021/07/08 04:25:37;;;;;;;9.05;5.32;;;17.30;99.90;;;;;;5023640;28;20034;-71
2021/07/08 04:28:04;;;;;;;7.53;4.63;;;17.40;99.90;;;;;;5049086;28;20037;-71
2021/07/08 04:30:33;;;;;;;8.32;5.47;;;17.40;99.90;;;;;;5051724;28;20044;-71
2021/07/08 04:33:01;;;;;;;6.88;5.07;;;17.40;99.90;;;;;;5046099;28;20067;-71
2021/07/08 04:37:59;;;;;;;12.02;5.45;;;17.40;99.90;;;;;;5033688;28;20063;-71
2021/07/08 04:40:27;;;;;;;8.18;5.15;;;17.40;99.90;;;;;;5030620;28;20508;-71
2021/07/08 04:42:56;;;;;;;7.78;5.35;;;17.40;99.90;;;;;;5029281;28;20037;-71
2021/07/08 04:45:23;;;;;;;7.60;4.95;;;17.40;99.90;;;;;;5029992;28;20076;-70
2021/07/08 04:47:51;;;;;;;6.25;5.05;;;17.50;99.90;;;;;;5043243;28;20040;-70
2021/07/08 04:50:20;;;;;;;6.25;4.80;;;17.50;99.90;;;;;;5050266;28;20033;-70
2021/07/08 04:52:50;;;;;;;9.00;6.10;;;17.50;99.90;;;;;;5048378;28;20553;-71
2021/07/08 04:55:21;;;;;;;9.73;5.82;;;17.60;99.90;;;;;;5021341;28;20115;-70
2021/07/08 04:57:50;;;;;;;8.00;4.72;;;17.60;99.90;;;;;;5044879;28;20047;-71
2021/07/08 05:00:19;;;;;;;7.07;4.53;;;17.60;99.90;;;;;;5043463;28;20075;-71
2021/07/08 05:02:48;;;;;;;7.38;5.55;;;17.60;99.90;;;;;;5039508;28;20048;-71
2021/07/08 05:05:17;;;;;;;8.23;5.00;;;17.60;99.90;;;;;;5041705;28;20053;-71
2021/07/08 05:07:45;;;;;;;8.27;5.32;;;17.50;99.90;;;;;;5050190;28;20049;-71
2021/07/08 05:10:14;;;;;;;8.35;5.53;;;17.60;99.90;;;;;;5034405;28;20076;-72
2021/07/08 05:12:43;;;;;;;9.00;5.88;;;17.60;99.90;;;;;;5033648;28;20041;-71
2021/07/08 05:15:14;;;;;;;8.88;5.30;;;17.60;99.90;;;;;;5047901;28;20041;-70
2021/07/08 05:17:44;;;;;;;6.03;5.00;;;17.50;99.90;;;;;;5031817;28;20140;-70
2021/07/08 05:20:13;;;;;;;10.75;6.40;;;17.60;99.90;;;;;;5051169;28;20040;-71
2021/07/08 05:22:42;;;;;;;8.25;5.60;;;17.60;99.90;;;;;;5045765;28;20041;-70
2021/07/08 05:25:12;;;;;;;8.98;5.82;;;17.60;99.90;;;;;;5032348;28;20049;-71
2021/07/08 05:27:40;;;;;;;7.32;5.18;;;17.60;99.90;;;;;;5045375;28;20479;-71
2021/07/08 05:30:09;;;;;;;9.20;4.97;;;17.60;99.90;;;;;;5046802;28;20443;-70
2021/07/08 05:32:37;;;;;;;6.10;4.78;;;17.60;99.90;;;;;;5038528;28;20379;-70
2021/07/08 05:35:05;;;;;;;8.43;4.82;;;17.70;99.90;;;;;;5036136;28;20096;-70
2021/07/08 05:37:33;;;;;;;8.82;5.65;;;17.70;99.90;;;;;;5041437;28;20034;-71
2021/07/08 05:40:00;;;;;;;8.57;5.72;;;17.70;99.90;;;;;;5037942;28;20056;-71
2021/07/08 05:42:28;;;;;;;7.75;4.95;;;17.60;99.90;;;;;;5045561;28;20468;-71
2021/07/08 05:44:56;;;;;;;7.88;5.35;;;17.70;99.90;;;;;;5046574;28;20033;-70
2021/07/08 05:47:24;;;;;;;6.78;5.13;;;17.70;99.90;;;;;;5034700;28;20042;-70
2021/07/08 05:49:57;;;;;;;7.75;5.75;;;17.70;99.90;;;;;;5031734;28;20041;-70
2021/07/08 05:52:25;;;;;;;9.23;7.30;;;17.80;99.90;;;;;;5033942;28;20073;-70
2021/07/08 05:54:53;;;;;;;8.10;5.40;;;17.90;99.90;;;;;;5040576;28;20037;-71
2021/07/08 05:57:20;;;;;;;8.18;5.88;;;17.90;99.90;;;;;;5043875;28;20049;-71
2021/07/08 05:59:48;;;;;;;11.50;6.32;;;18.00;99.90;;;;;;5045114;28;20041;-71
2021/07/08 06:02:15;;;;;;;6.32;5.05;;;18.00;99.90;;;;;;5040112;28;20168;-70
2021/07/08 06:04:43;;;;;;;10.40;7.38;;;18.10;99.90;;;;;;5039513;28;20041;-70
2021/07/08 06:07:10;;;;;;;8.82;5.90;;;18.00;99.90;;;;;;5041142;28;20045;-70
2021/07/08 06:09:38;;;;;;;9.63;6.55;;;18.00;99.90;;;;;;5038992;28;20040;-71
2021/07/08 06:12:05;;;;;;;9.50;6.07;;;18.00;99.90;;;;;;5036748;28;20559;-71
2021/07/08 06:14:33;;;;;;;8.07;6.35;;;18.00;99.90;;;;;;5049498;28;20051;-70
2021/07/08 06:17:01;;;;;;;7.47;5.00;;;17.90;99.90;;;;;;5039792;28;20041;-71
2021/07/08 06:19:28;;;;;;;7.78;5.50;;;17.90;99.90;;;;;;5051005;28;20080;-69
2021/07/08 06:21:56;;;;;;;7.70;5.30;;;18.00;99.90;;;;;;5043634;28;20444;-69
2021/07/08 06:24:23;;;;;;;6.60;5.20;;;18.00;99.90;;;;;;5041657;28;20060;-70
2021/07/08 06:26:50;;;;;;;7.13;4.95;;;18.10;99.90;;;;;;5046009;28;20048;-71
2021/07/08 06:29:18;;;;;;;10.95;7.45;;;18.10;99.90;;;;;;5048570;28;20075;-69
2021/07/08 06:31:45;;;;;;;7.70;5.30;;;18.10;99.90;;;;;;5052712;28;20041;-70
2021/07/08 06:34:12;;;;;;;6.82;4.82;;;18.10;99.90;;;;;;5038026;28;20530;-71
2021/07/08 06:36:40;;;;;;;6.90;5.00;;;18.10;99.90;;;;;;5037797;28;20559;-71
2021/07/08 06:39:07;;;;;;;7.60;5.85;;;18.10;99.90;;;;;;5032241;28;20037;-70
2021/07/08 06:41:36;;;;;;;12.32;8.45;;;18.10;99.90;;;;;;5031893;28;20486;-70
2021/07/08 06:44:04;;;;;;;7.97;5.85;;;18.20;99.90;;;;;;5037748;28;20572;-71
2021/07/08 06:46:32;;;;;;;8.68;5.90;;;18.30;99.90;;;;;;5037423;28;20044;-70
2021/07/08 06:49:00;;;;;;;7.65;4.45;;;18.40;99.90;;;;;;5039182;28;20559;-70
2021/07/08 06:51:29;;;;;;;6.68;4.85;;;18.50;99.90;;;;;;5038999;28;20046;-70
2021/07/08 06:53:56;;;;;;;7.75;4.35;;;18.70;99.90;;;;;;5030952;28;20136;-71
2021/07/08 06:56:24;;;;;;;5.75;4.28;;;19.00;99.90;;;;;;5018173;28;20077;-71
2021/07/08 06:58:52;;;;;;;6.30;3.67;;;19.20;99.90;;;;;;5034809;28;20040;-71
2021/07/08 07:01:19;;;;;;;8.55;5.05;;;19.50;99.90;;;;;;5040403;28;20060;-71
2021/07/08 07:03:46;;;;;;;6.32;3.25;;;19.70;99.90;;;;;;5036166;28;20053;-70
2021/07/08 07:06:14;;;;;;;10.00;5.43;;;19.80;99.90;;;;;;5046569;28;20132;-69
2021/07/08 07:08:45;;;;;;;7.37;4.43;;;19.80;99.90;;;;;;5060127;28;20472;-69
2021/07/08 07:11:13;;;;;;;5.43;3.28;;;19.80;99.90;;;;;;5045293;28;20466;-69
2021/07/08 07:13:41;;;;;;;4.43;2.95;;;19.70;99.90;;;;;;5038196;28;20049;-69
2021/07/08 07:16:08;;;;;;;7.82;4.05;;;19.50;99.90;;;;;;5039394;28;20052;-70
2021/07/08 07:18:39;;;;;;;4.88;3.50;;;19.30;99.90;;;;;;5049386;28;20893;-70
2021/07/08 07:21:11;;;;;;;5.97;3.33;;;19.20;99.90;;;;;;5044715;28;20038;-70
2021/07/08 07:23:39;;;;;;;6.30;3.50;;;19.10;99.90;;;;;;5020200;28;20052;-70
2021/07/08 07:26:07;;;;;;;7.25;3.45;;;19.00;99.90;;;;;;5031487;28;20132;-70
2021/07/08 07:28:36;;;;;;;5.88;2.97;;;18.90;99.90;;;;;;5030986;28;20117;-70
2021/07/08 07:31:04;;;;;;;6.70;3.75;;;18.80;99.90;;;;;;5051647;28;20045;-69
2021/07/08 07:33:32;;;;;;;4.15;2.85;;;18.70;99.90;;;;;;5037098;28;20038;-69
2021/07/08 07:36:01;;;;;;;5.90;3.30;;;18.70;99.90;;;;;;5033077;28;20099;-69
2021/07/08 07:38:28;;;;;;;4.55;2.85;;;18.70;99.90;;;;;;5036238;28;20045;-69
2021/07/08 07:40:56;;;;;;;3.83;2.35;;;18.70;99.90;;;;;;5029045;28;20103;-69
2021/07/08 07:43:23;;;;;;;5.03;2.65;;;18.60;99.90;;;;;;5040870;28;20081;-70
2021/07/08 07:45:51;;;;;;;5.95;3.30;;;18.70;99.90;;;;;;5025388;28;20051;-70
2021/07/08 07:48:18;;;;;;;5.63;3.35;;;18.80;99.90;;;;;;5034579;28;20037;-69
2021/07/08 07:50:46;;;;;;;4.93;3.22;;;18.70;99.90;;;;;;5036318;28;20049;-69
2021/07/08 07:53:14;;;;;;;5.57;3.17;;;18.80;99.90;;;;;;5041656;28;20047;-69
2021/07/08 07:55:41;;;;;;;4.38;2.40;;;18.90;99.90;;;;;;5034068;28;20395;-70
2021/07/08 07:58:09;;;;;;;6.15;3.20;;;19.00;99.90;;;;;;5048751;28;20135;-69
2021/07/08 08:00:36;;;;;;;4.72;3.00;;;19.10;99.90;;;;;;5040980;28;20042;-69
2021/07/08 08:03:04;;;;;;;5.38;3.03;;;19.20;99.90;;;;;;5036179;28;20103;-69
2021/07/08 08:10:47;;;;;;;6.38;4.85;;;19.50;99.90;;;;;;5034174;28;20033;-70
2021/07/08 08:13:14;;;;;;;5.70;3.90;;;19.60;99.90;;;;;;5030485;28;20041;-71
2021/07/08 08:15:44;;;;;;;7.10;5.20;;;19.70;99.90;;;;;;5014248;28;20030;-70
2021/07/08 08:18:12;;;;;;;5.75;3.95;;;19.90;99.90;;;;;;5026399;28;20572;-71
2021/07/08 08:20:39;;;;;;;4.97;2.50;;;20.00;99.90;;;;;;5032689;28;20064;-72
2021/07/08 08:23:07;;;;;;;5.47;2.30;;;20.20;99.90;;;;;;5039630;28;20132;-70
2021/07/08 08:25:35;;;;;;;6.47;2.40;;;20.40;99.90;;;;;;5030289;28;20057;-70
2021/07/08 08:28:02;;;;;;;4.03;2.25;;;20.60;99.90;;;;;;5048844;28;20069;-70
2021/07/08 08:30:30;;;;;;;5.63;2.45;;;20.90;99.90;;;;;;5032491;28;20082;-70
2021/07/08 08:32:58;;;;;;;4.80;2.33;;;21.30;99.90;;;;;;5046514;28;20116;-70
2021/07/08 08:35:26;;;;;;;6.13;2.60;;;21.50;99.90;;;;;;5038131;28;20167;-70
2021/07/08 08:37:54;;;;;;;4.57;2.28;;;21.60;99.90;;;;;;5034074;28;20049;-70
2021/07/08 08:40:22;;;;;;;3.75;1.88;;;22.00;99.90;;;;;;5043023;28;20061;-70
2021/07/08 08:42:50;;;;;;;3.65;1.83;;;22.30;99.90;;;;;;5028244;28;20052;-70
2021/07/08 08:45:18;;;;;;;9.68;6.38;;;22.70;99.90;;;;;;5042239;28;20095;-70
2021/07/08 08:48:06;;;;;;;6.45;3.15;;;22.90;99.90;;;;;;5041651;28;20519;-70
2021/07/08 08:50:42;;;;;;;4.93;2.90;;;23.10;99.90;;;;;;5040199;28;20412;-70
2021/07/08 08:53:11;;;;;;;4.28;2.00;;;23.20;99.90;;;;;;5042977;28;20402;-70
2021/07/08 08:55:40;;;;;;;2.90;1.70;;;23.30;99.90;;;;;;5034283;28;20042;-70
2021/07/08 08:58:12;;;;;;;3.10;2.00;;;23.40;99.90;;;;;;5039002;28;20571;-71
2021/07/08 09:00:54;;;;;;;3.58;1.90;;;23.50;99.90;;;;;;5030458;28;20152;-71
2021/07/08 09:03:31;;;;;;;3.80;1.60;;;23.60;99.90;;;;;;5045201;28;20571;-71
2021/07/08 09:06:01;;;;;;;3.60;1.52;;;23.60;99.90;;;;;;5031345;28;20069;-70
2021/07/08 09:08:28;;;;;;;3.13;1.70;;;23.60;99.90;;;;;;5047363;28;20582;-70
2021/07/08 09:11:01;;;;;;;2.78;1.65;;;23.60;99.90;;;;;;5050885;28;20041;-71
2021/07/08 09:13:47;;;;;;;4.57;1.63;;;23.60;99.90;;;;;;5046613;28;20045;-71
2021/07/08 09:16:16;;;;;;;2.95;1.40;;;23.70;99.90;;;;;;5048944;28;20495;-71
2021/07/08 09:18:54;;;;;;;2.85;1.50;;;23.70;99.90;;;;;;5029009;28;20029;-70
2021/07/08 09:21:22;;;;;;;2.65;1.52;;;23.80;99.90;;;;;;5047063;28;20090;-71
2021/07/08 09:24:09;;;;;;;4.95;2.17;;;23.60;99.90;;;;;;5043610;28;20041;-71
2021/07/08 09:26:39;;;;;;;3.97;1.90;;;23.50;99.90;;;;;;5027252;28;20110;-71
2021/07/08 09:29:18;;;;;;;4.25;2.05;;;23.70;99.90;;;;;;5046237;28;20492;-70
2021/07/08 09:31:51;;;;;;;3.47;1.90;;;23.90;99.90;;;;;;5039793;28;20046;-70
2021/07/08 09:34:29;;;;;;;3.65;2.00;;;24.30;99.90;;;;;;5033838;28;20120;-70
2021/07/08 09:37:12;;;;;;;3.17;1.65;;;24.50;99.90;;;;;;5043663;28;20091;-70
2021/07/08 09:39:45;;;;;;;2.85;1.60;;;25.00;99.90;;;;;;5033601;28;20528;-70
2021/07/08 09:42:41;;;;;;;2.53;1.38;;;25.50;99.90;;;;;;5038891;28;20052;-71
2021/07/08 09:45:10;;;;;;;2.25;1.40;;;25.60;99.90;;;;;;5042823;28;20053;-71
2021/07/08 09:47:39;;;;;;;2.40;1.27;;;25.90;99.90;;;;;;5035150;28;20551;-71
2021/07/08 09:50:08;;;;;;;6.07;1.70;;;26.20;99.90;;;;;;5037719;28;20037;-71
2021/07/08 09:52:35;;;;;;;3.15;1.48;;;26.10;99.90;;;;;;5033667;28;20491;-71
2021/07/08 09:57:45;;;;;;;2.83;1.42;;;26.10;99.90;;;;;;5048398;28;20052;-71
2021/07/08 10:00:22;;;;;;;2.15;1.40;;;26.20;99.90;;;;;;5040183;28;20556;-71
2021/07/08 10:02:51;;;;;;;2.95;1.20;;;26.40;99.90;;;;;;5029250;28;20140;-71
2021/07/08 10:05:20;;;;;;;1.98;1.30;;;26.50;99.90;;;;;;5048746;28;20045;-72
2021/07/08 10:07:48;;;;;;;2.53;1.50;;;26.70;99.90;;;;;;5049116;28;20116;-69
2021/07/08 10:10:16;;;;;;;4.10;1.80;;;26.90;99.90;;;;;;5043518;28;20057;-69
2021/07/08 10:12:49;;;;;;;3.17;1.40;;;27.00;99.90;;;;;;5047467;28;20458;-71
2021/07/08 10:15:17;;;;;;;2.35;1.33;;;26.80;99.90;;;;;;5048853;28;20044;-72
2021/07/08 10:17:45;;;;;;;4.50;1.60;;;27.00;99.90;;;;;;5046878;28;20683;-69
2021/07/08 10:20:14;;;;;;;2.65;1.40;;;27.30;99.90;;;;;;5043636;28;20096;-70
2021/07/08 10:22:42;;;;;;;3.97;1.40;;;27.60;99.90;;;;;;5037736;28;20131;-69
2021/07/08 10:25:12;;;;;;;2.13;1.30;;;27.90;99.90;;;;;;5027301;28;20088;-69
2021/07/08 10:27:42;;;;;;;2.17;1.25;;;28.30;99.90;;;;;;5045924;28;20491;-69
2021/07/08 10:30:11;;;;;;;4.00;1.33;;;28.60;99.90;;;;;;5044201;28;20057;-71
2021/07/08 10:32:39;;;;;;;2.70;1.42;;;28.30;99.90;;;;;;5043500;28;20451;-70
2021/07/08 10:35:07;;;;;;;2.97;1.60;;;28.00;99.90;;;;;;5038588;28;20067;-71
2021/07/08 10:37:37;;;;;;;2.05;1.50;;;27.80;99.90;;;;;;5045272;28;20053;-71
2021/07/08 10:40:28;;;;;;;2.63;1.52;;;27.40;99.90;;;;;;5041834;28;20469;-71
2021/07/08 10:43:09;;;;;;;2.70;1.60;;;27.10;99.90;;;;;;5026960;28;20076;-71
2021/07/08 10:45:38;;;;;;;4.53;1.80;;;27.00;99.90;;;;;;5050805;28;20368;-71
2021/07/08 10:48:23;;;;;;;2.92;1.90;;;26.80;99.90;;;;;;5044192;28;20041;-70
2021/07/08 10:50:51;;;;;;;2.80;2.00;;;26.70;99.90;;;;;;5054328;28;20176;-70
2021/07/08 10:53:24;;;;;;;3.97;1.90;;;26.70;99.90;;;;;;5035768;28;20060;-70
2021/07/08 10:55:54;;;;;;;3.13;2.03;;;26.90;99.90;;;;;;5045665;28;20514;-70
2021/07/08 10:58:50;;;;;;;3.80;1.90;;;26.90;99.90;;;;;;5049848;28;20057;-70
2021/07/08 11:01:23;;;;;;;2.90;1.90;;;27.10;99.90;;;;;;5043903;28;20045;-71
2021/07/08 11:03:53;;;;;;;3.25;2.00;;;26.90;99.90;;;;;;5043956;28;20091;-71
2021/07/08 11:06:31;;;;;;;3.20;2.10;;;26.70;99.90;;;;;;5030688;28;20068;-71
2021/07/08 11:09:05;;;;;;;4.68;2.00;;;26.20;99.90;;;;;;5053544;28;20045;-71
2021/07/08 11:11:33;;;;;;;3.67;1.77;;;25.90;99.90;;;;;;5046394;28;20043;-71
2021/07/08 11:14:08;;;;;;;3.35;1.90;;;25.60;99.90;;;;;;5040464;28;20041;-71
2021/07/08 11:16:43;;;;;;;3.30;2.10;;;25.50;99.90;;;;;;5038710;28;20046;-71
2021/07/08 11:19:20;;;;;;;4.78;2.03;;;25.30;99.90;;;;;;5036212;28;20098;-71
2021/07/08 11:22:09;;;;;;;3.92;2.33;;;25.20;99.90;;;;;;5046935;28;20072;-70
2021/07/08 11:24:53;;;;;;;3.15;2.05;;;25.10;99.90;;;;;;5039959;28;20041;-70
2021/07/08 11:27:23;;;;;;;5.82;4.05;;;25.10;99.90;;;;;;5041265;28;20064;-70
2021/07/08 11:29:55;;;;;;;8.63;5.80;;;25.10;99.90;;;;;;5037970;28;20069;-70
2021/07/08 11:32:28;;;;;;;5.03;3.20;;;25.10;99.90;;;;;;5051640;28;20069;-70
2021/07/08 11:35:09;;;;;;;4.97;2.83;;;25.00;99.90;;;;;;5046919;28;20045;-70
2021/07/08 11:37:43;;;;;;;5.47;3.03;;;25.10;99.90;;;;;;5031302;28;20072;-70
2021/07/08 11:40:14;;;;;;;8.68;4.93;;;25.40;99.90;;;;;;5033574;28;20048;-70
2021/07/08 11:42:46;;;;;;;6.18;3.58;;;25.80;99.90;;;;;;5050283;28;20103;-70
2021/07/08 11:45:16;;;;;;;6.60;3.97;;;25.90;99.90;;;;;;5038827;28;20557;-70
2021/07/08 11:47:55;;;;;;;5.13;2.95;;;25.90;99.90;;;;;;5042573;28;20460;-70
2021/07/08 11:50:24;;;;;;;5.00;3.45;;;25.60;99.90;;;;;;5049962;28;20124;-70
2021/07/08 11:53:11;;;;;;;6.47;2.55;;;25.30;99.90;;;;;;5048689;28;20103;-70
2021/07/08 11:55:44;;;;;;;4.10;2.60;;;25.10;99.90;;;;;;5032401;28;20037;-70
2021/07/08 11:58:14;;;;;;;5.05;2.70;;;25.20;99.90;;;;;;5045614;28;20059;-70
2021/07/08 12:00:47;;;;;;;3.83;2.63;;;25.50;99.90;;;;;;5016161;28;20099;-70
2021/07/08 12:03:39;;;;;;;6.28;2.75;;;25.50;99.90;;;;;;5043293;28;20079;-70
2021/07/08 12:06:17;;;;;;;5.63;3.05;;;25.50;99.90;;;;;;5043383;28;20186;-70
2021/07/08 12:08:58;;;;;;;4.38;2.88;;;25.30;99.90;;;;;;5046068;28;20365;-70
2021/07/08 12:11:28;;;;;;;5.18;3.05;;;24.90;99.90;;;;;;5050698;28;20079;-70
2021/07/08 12:14:07;;;;;;;4.82;3.05;;;24.70;99.90;;;;;;5049188;28;20562;-70
2021/07/08 12:16:44;;;;;;;5.03;3.67;;;24.70;99.90;;;;;;5050533;28;20048;-70
2021/07/08 12:19:18;;;;;;;4.95;3.40;;;24.70;99.90;;;;;;5047232;28;20128;-70
2021/07/08 12:21:47;;;;;;;4.60;3.38;;;24.60;99.90;;;;;;5043688;28;20045;-70
2021/07/08 12:24:20;;;;;;;6.38;3.53;;;24.40;99.90;;;;;;5047843;28;20107;-70
2021/07/08 12:26:48;;;;;;;6.03;3.60;;;24.10;99.90;;;;;;5030142;28;20083;-70
2021/07/08 12:29:29;;;;;;;5.57;3.67;;;23.90;99.90;;;;;;5029215;28;20061;-70
2021/07/08 12:32:00;;;;;;;5.72;4.10;;;23.80;99.90;;;;;;5047503;28;20071;-70
2021/07/08 12:34:49;;;;;;;5.25;3.50;;;23.60;99.90;;;;;;5048423;28;20049;-70
2021/07/08 12:37:19;;;;;;;5.90;3.60;;;23.60;99.90;;;;;;5039599;28;20058;-70
2021/07/08 12:39:53;;;;;;;6.68;3.92;;;23.60;99.90;;;;;;5046153;28;20052;-70
2021/07/08 12:42:26;;;;;;;4.30;3.30;;;23.50;99.90;;;;;;5045377;28;20076;-70
2021/07/08 12:44:58;;;;;;;4.45;3.50;;;23.30;99.90;;;;;;5038676;28;20147;-70
2021/07/08 12:47:25;;;;;;;;;;;23.20;99.90;;;;;;5029373;28;20060;-70
2021/07/08 12:49:54;;;;;;;5.50;3.63;;;23.10;99.90;;;;;;5038021;28;19929;-70
2021/07/08 12:52:22;;;;;;;5.25;3.80;;;23.00;99.90;;;;;;5043301;28;20048;-70
2021/07/08 12:54:50;;;;;;;4.15;3.25;;;22.90;99.90;;;;;;5049249;28;20388;-70
2021/07/08 12:57:22;;;;;;;5.15;3.40;;;22.90;99.90;;;;;;5042881;28;20554;-70
2021/07/08 12:59:58;;;;;;;7.15;3.80;;;22.90;99.90;;;;;;5031545;28;20045;-70
2021/07/08 13:02:31;;;;;;;4.90;3.55;;;22.90;99.90;;;;;;5031089;28;20116;-70
2021/07/08 13:05:10;;;;;;;5.70;4.15;;;23.00;99.90;;;;;;5030924;28;20140;-69
2021/07/08 13:07:47;;;;;;;6.18;4.05;;;23.00;99.90;;;;;;5034166;28;20128;-69
2021/07/08 13:10:15;;;;;;;5.75;4.20;;;22.90;99.90;;;;;;5057527;28;20065;-69
2021/07/08 13:12:43;;;;;;;4.40;3.05;;;22.80;99.90;;;;;;5036819;28;20034;-69